Time;durP1;ratioP1;P1;durP2;ratioP2;P2;SDS_P1;SDS_P2;PMS_P1;PMS_P2;Temp;Humidity;BMP_temperature;BMP_pressure;BME280_temperature;BME280_humidity;BME280_pressure;Samples;Min_cycle;Max_cycle;Signal;HPM_P1;HPM_P2
2023/04/19 00:01:27;;;;;;;20.40;13.50;;;10.70;99.90;;;;;;5048121;28;20043;-49
2023/04/19 00:03:54;;;;;;;20.80;13.97;;;10.70;99.90;;;;;;5047805;28;20450;-46
2023/04/19 00:06:20;;;;;;;19.83;13.67;;;10.70;99.90;;;;;;5048591;28;20456;-48
2023/04/19 00:08:46;;;;;;;22.00;13.70;;;10.70;99.90;;;;;;5048577;28;20036;-47
2023/04/19 00:11:12;;;;;;;22.03;14.73;;;10.60;99.90;;;;;;5048447;28;20033;-47
2023/04/19 00:13:37;;;;;;;21.13;14.53;;;10.60;99.90;;;;;;5048472;28;20128;-48
2023/04/19 00:16:04;;;;;;;23.33;15.17;;;10.60;99.90;;;;;;5048407;28;20108;-51
2023/04/19 00:18:30;;;;;;;23.07;15.13;;;10.60;99.90;;;;;;5047707;28;20029;-47
2023/04/19 00:20:56;;;;;;;19.53;13.40;;;10.60;99.90;;;;;;5047400;28;20040;-49
2023/04/19 00:23:21;;;;;;;21.30;14.00;;;10.60;99.90;;;;;;5048277;28;20420;-48
2023/04/19 00:25:48;;;;;;;22.67;15.07;;;10.60;99.90;;;;;;5048565;28;20040;-51
2023/04/19 00:28:14;;;;;;;20.70;13.97;;;10.60;99.90;;;;;;5048288;28;20530;-49
2023/04/19 00:30:41;;;;;;;22.07;14.50;;;10.60;99.90;;;;;;5046739;28;20078;-48
2023/04/19 00:33:11;;;;;;;21.27;14.17;;;10.70;99.90;;;;;;5046353;28;20059;-48
2023/04/19 00:35:42;;;;;;;25.07;15.03;;;10.60;99.90;;;;;;5048548;28;20025;-49
2023/04/19 00:38:08;;;;;;;24.70;14.50;;;10.60;99.90;;;;;;5048228;28;20107;-51
2023/04/19 00:40:36;;;;;;;23.00;14.97;;;10.60;99.90;;;;;;5046667;28;20032;-47
2023/04/19 00:43:03;;;;;;;22.17;14.80;;;10.70;99.90;;;;;;5047092;28;20458;-50
2023/04/19 00:45:32;;;;;;;21.23;14.73;;;10.70;99.90;;;;;;5051624;28;20070;-50
2023/04/19 00:47:59;;;;;;;23.37;15.10;;;10.70;99.90;;;;;;5051439;28;20037;-49
2023/04/19 00:50:25;;;;;;;23.37;15.10;;;10.70;99.90;;;;;;5052024;28;20126;-51
2023/04/19 00:52:52;;;;;;;22.87;15.13;;;10.80;99.90;;;;;;5050560;28;20029;-48
2023/04/19 00:55:18;;;;;;;22.70;14.77;;;10.80;99.90;;;;;;5051785;28;20028;-47
2023/04/19 00:57:45;;;;;;;25.83;15.23;;;10.80;99.90;;;;;;5051839;28;20021;-47
2023/04/19 01:00:11;;;;;;;22.77;15.10;;;10.80;99.90;;;;;;5051439;28;20041;-50
2023/04/19 01:02:37;;;;;;;22.43;14.70;;;10.80;99.90;;;;;;5051329;28;20090;-50
2023/04/19 01:05:03;;;;;;;21.37;14.57;;;10.80;99.90;;;;;;5066952;28;20033;-48
2023/04/19 01:07:29;;;;;;;22.63;15.23;;;10.80;99.90;;;;;;5051552;28;20091;-47
2023/04/19 01:09:55;;;;;;;20.83;13.40;;;10.80;99.90;;;;;;5051642;28;20029;-47
2023/04/19 01:12:21;;;;;;;20.33;14.87;;;10.90;99.90;;;;;;5066875;28;20068;-49
2023/04/19 01:14:47;;;;;;;25.10;15.23;;;10.90;99.90;;;;;;5049716;28;20021;-48
2023/04/19 01:17:16;;;;;;;20.90;14.57;;;10.90;99.90;;;;;;5050755;28;20047;-48
2023/04/19 01:19:42;;;;;;;21.13;13.93;;;10.90;99.90;;;;;;5050152;28;20461;-49
2023/04/19 01:22:08;;;;;;;23.50;14.10;;;11.00;99.90;;;;;;5049798;28;20068;-50
2023/04/19 01:24:35;;;;;;;22.57;14.23;;;11.10;99.90;;;;;;5051476;28;20393;-47
2023/04/19 01:27:03;;;;;;;20.90;13.53;;;11.10;99.90;;;;;;5049379;28;20119;-47
2023/04/19 01:29:29;;;;;;;22.10;13.03;;;11.10;99.90;;;;;;5051680;28;20546;-47
2023/04/19 01:31:55;;;;;;;22.47;13.10;;;11.10;99.90;;;;;;5088469;23;20498;-54
2023/04/19 01:34:24;;;;;;;25.43;14.00;;;11.10;99.90;;;;;;5091495;28;20028;-55
2023/04/19 01:36:50;;;;;;;;;;;11.10;99.90;;;;;;5091785;28;20074;-52
2023/04/19 01:39:16;;;;;;;20.40;13.47;;;11.10;99.90;;;;;;5092080;28;19951;-52
2023/04/19 01:41:41;;;;;;;20.83;14.33;;;11.10;99.90;;;;;;5103695;28;20110;-55
2023/04/19 01:44:08;;;;;;;19.80;13.40;;;11.00;99.90;;;;;;5110549;28;20115;-55
2023/04/19 01:46:35;;;;;;;23.07;13.93;;;11.10;99.90;;;;;;5111435;28;20106;-54
2023/04/19 01:49:01;;;;;;;22.63;13.40;;;11.10;99.90;;;;;;5111513;28;20023;-52
2023/04/19 01:51:26;;;;;;;23.13;14.40;;;11.10;99.90;;;;;;5111918;28;20452;-53
2023/04/19 01:53:53;;;;;;;21.77;14.07;;;11.00;99.90;;;;;;5111822;28;20048;-53
2023/04/19 01:56:20;;;;;;;22.43;14.20;;;11.00;99.90;;;;;;5110432;28;20475;-54
2023/04/19 01:58:46;;;;;;;20.63;13.80;;;11.00;99.90;;;;;;5110220;28;20337;-54
2023/04/19 02:01:12;;;;;;;22.27;14.27;;;11.00;99.90;;;;;;5109907;28;20043;-55
2023/04/19 02:03:38;;;;;;;21.80;14.77;;;10.90;99.90;;;;;;5110703;28;20027;-54
2023/04/19 02:06:04;;;;;;;21.00;13.70;;;10.90;99.90;;;;;;5111848;28;20040;-55
2023/04/19 02:08:30;;;;;;;22.47;14.27;;;10.90;99.90;;;;;;5111128;28;20031;-57
2023/04/19 02:10:56;;;;;;;24.80;15.07;;;10.90;99.90;;;;;;5111563;28;20051;-55
2023/04/19 02:13:22;;;;;;;21.13;13.80;;;10.80;99.90;;;;;;5109874;28;20136;-56
2023/04/19 02:15:48;;;;;;;25.60;14.97;;;10.80;99.90;;;;;;5111173;28;20127;-53
2023/04/19 02:18:13;;;;;;;22.23;14.37;;;10.70;99.90;;;;;;5110442;28;20038;-54
2023/04/19 02:20:39;;;;;;;23.67;14.00;;;10.60;99.90;;;;;;5109777;28;20049;-53
2023/04/19 02:23:05;;;;;;;21.87;14.33;;;10.60;99.90;;;;;;5111475;27;20040;-53
2023/04/19 02:25:31;;;;;;;19.90;13.83;;;10.50;99.90;;;;;;5109769;28;20039;-54
2023/04/19 02:27:56;;;;;;;21.87;14.23;;;10.50;99.90;;;;;;5111108;28;20390;-53
2023/04/19 02:30:22;;;;;;;20.93;13.77;;;10.40;99.90;;;;;;5109176;28;20042;-54
2023/04/19 02:32:50;;;;;;;22.10;13.53;;;10.30;99.90;;;;;;5109033;28;20131;-53
2023/04/19 02:35:16;;;;;;;22.00;14.27;;;10.30;99.90;;;;;;5110688;28;20424;-54
2023/04/19 02:37:42;;;;;;;22.80;14.70;;;10.30;99.90;;;;;;5110616;28;20095;-55
2023/04/19 02:40:08;;;;;;;21.03;14.20;;;10.20;99.90;;;;;;5110590;28;20031;-53
2023/04/19 02:42:34;;;;;;;21.13;14.07;;;10.10;99.90;;;;;;5110852;28;20118;-55
2023/04/19 02:45:00;;;;;;;22.10;14.67;;;10.10;99.90;;;;;;5108809;28;20511;-54
2023/04/19 02:47:26;;;;;;;22.70;14.13;;;10.00;99.90;;;;;;5109626;28;20031;-56
2023/04/19 02:49:52;;;;;;;22.63;14.03;;;10.00;99.90;;;;;;5109297;28;20043;-53
2023/04/19 02:52:18;;;;;;;21.83;13.07;;;9.90;99.90;;;;;;5109012;28;20023;-53
2023/04/19 02:54:44;;;;;;;19.27;12.73;;;9.90;99.90;;;;;;5109186;28;20434;-50
2023/04/19 02:57:10;;;;;;;22.20;13.73;;;9.90;99.90;;;;;;5091883;27;20031;-53
2023/04/19 02:59:38;;;;;;;19.67;12.97;;;9.90;99.90;;;;;;5112584;27;20027;-55
2023/04/19 03:02:04;;;;;;;16.90;11.43;;;9.90;99.90;;;;;;5128630;27;20150;-53
2023/04/19 03:04:31;;;;;;;18.30;11.47;;;9.90;99.90;;;;;;5129542;27;20153;-54
2023/04/19 03:06:56;;;;;;;18.90;12.03;;;10.00;99.90;;;;;;5130367;27;20027;-56
2023/04/19 03:09:23;;;;;;;18.53;11.80;;;10.00;99.90;;;;;;5131110;27;20030;-50
2023/04/19 03:11:49;;;;;;;17.53;10.43;;;10.00;99.90;;;;;;5129295;27;20035;-53
2023/04/19 03:14:16;;;;;;;15.53;9.57;;;10.10;99.90;;;;;;5129482;27;20395;-54
2023/04/19 03:16:42;;;;;;;16.77;10.20;;;10.20;99.90;;;;;;5128118;27;20102;-54
2023/04/19 03:19:08;;;;;;;16.50;10.90;;;10.20;99.90;;;;;;5129816;27;20027;-53
2023/04/19 03:21:40;;;;;;;14.93;9.70;;;10.20;99.90;;;;;;5129258;27;20045;-54
2023/04/19 03:24:06;;;;;;;13.13;8.43;;;10.30;99.90;;;;;;5130750;27;20027;-53
2023/04/19 03:26:32;;;;;;;16.10;9.13;;;10.30;99.90;;;;;;5128947;27;20035;-54
2023/04/19 03:28:57;;;;;;;14.13;8.87;;;10.40;99.90;;;;;;5129092;27;20096;-53
2023/04/19 03:31:30;;;;;;;15.27;9.33;;;10.40;99.90;;;;;;5128729;27;20062;-54
2023/04/19 03:33:57;;;;;;;16.13;9.57;;;10.40;99.90;;;;;;5128315;27;20038;-52
2023/04/19 03:36:28;;;;;;;13.97;9.00;;;10.40;99.90;;;;;;5128878;27;20494;-51
2023/04/19 03:38:54;;;;;;;13.80;8.77;;;10.40;99.90;;;;;;5128800;27;20096;-55
2023/04/19 03:41:25;;;;;;;13.03;8.33;;;10.50;99.90;;;;;;5128904;27;20445;-53
2023/04/19 03:44:00;;;;;;;13.35;8.23;;;10.50;99.90;;;;;;5128714;27;20031;-54
2023/04/19 03:46:30;;;;;;;12.83;7.77;;;10.50;99.90;;;;;;5128314;27;20038;-52
2023/04/19 03:48:57;;;;;;;11.77;7.80;;;10.50;99.90;;;;;;5128188;27;20027;-52
2023/04/19 03:51:23;;;;;;;13.47;8.10;;;10.50;99.90;;;;;;5128612;27;20060;-52
2023/04/19 03:53:48;;;;;;;13.63;8.30;;;10.50;99.90;;;;;;5111117;27;20027;-54
2023/04/19 03:56:17;;;;;;;10.88;7.05;;;10.60;99.90;;;;;;5108141;28;20058;-52
2023/04/19 03:58:43;;;;;;;11.13;7.50;;;10.60;99.90;;;;;;5107976;28;20063;-53
2023/04/19 04:01:20;;;;;;;12.00;7.70;;;10.60;99.90;;;;;;5105246;28;20056;-56
2023/04/19 04:03:46;;;;;;;11.87;6.70;;;10.60;99.90;;;;;;5105760;28;20460;-55
2023/04/19 04:06:12;;;;;;;11.40;7.07;;;10.50;99.90;;;;;;5107883;28;20062;-52
2023/04/19 04:08:38;;;;;;;12.47;7.00;;;10.50;99.90;;;;;;5107408;28;20031;-54
2023/04/19 04:11:04;;;;;;;12.63;7.33;;;10.60;99.90;;;;;;5107049;28;20559;-54
2023/04/19 04:13:30;;;;;;;11.27;6.60;;;10.50;99.90;;;;;;5108987;28;20026;-55
2023/04/19 04:16:10;;;;;;;9.87;6.60;;;10.50;99.90;;;;;;5107709;28;20042;-55
2023/04/19 04:18:37;;;;;;;11.73;6.40;;;10.50;99.90;;;;;;5107211;28;20027;-53
2023/04/19 04:21:06;;;;;;;13.05;6.75;;;10.50;99.90;;;;;;5111984;28;20031;-55
2023/04/19 04:23:34;;;;;;;11.38;6.28;;;10.50;99.90;;;;;;5111861;28;20047;-54
2023/04/19 04:26:04;;;;;;;10.70;6.50;;;10.50;99.90;;;;;;5112197;28;20027;-52
2023/04/19 04:28:42;;;;;;;9.87;6.30;;;10.50;99.90;;;;;;5111948;28;20123;-56
2023/04/19 04:31:08;;;;;;;8.43;5.37;;;10.40;99.90;;;;;;5111458;28;20487;-54
2023/04/19 04:33:35;;;;;;;10.50;5.50;;;10.40;99.90;;;;;;5110999;28;20027;-54
2023/04/19 04:36:02;;;;;;;9.90;5.77;;;10.40;99.90;;;;;;5112016;28;20061;-54
2023/04/19 04:38:32;;;;;;;10.63;5.63;;;10.30;99.90;;;;;;5111496;28;20344;-55
2023/04/19 04:40:58;;;;;;;9.27;4.90;;;10.20;99.90;;;;;;5111795;28;20031;-54
2023/04/19 04:43:27;;;;;;;10.10;5.93;;;10.10;99.90;;;;;;5112968;28;20031;-54
2023/04/19 04:45:55;;;;;;;10.10;4.97;;;10.10;99.90;;;;;;5111355;28;20122;-54
2023/04/19 04:48:21;;;;;;;8.97;5.50;;;10.00;99.90;;;;;;5110676;28;20031;-52
2023/04/19 04:50:47;;;;;;;7.93;5.30;;;10.00;99.90;;;;;;5111533;28;20102;-54
2023/04/19 04:53:13;;;;;;;9.30;5.33;;;9.90;99.90;;;;;;5111592;28;20102;-53
2023/04/19 04:55:40;;;;;;;7.63;5.23;;;9.90;99.90;;;;;;5111385;28;20031;-51
2023/04/19 04:58:06;;;;;;;8.17;5.33;;;9.80;99.90;;;;;;5112794;28;20023;-52
2023/04/19 05:01:01;;;;;;;10.10;5.53;;;9.80;99.90;;;;;;5094378;28;20118;-49
2023/04/19 05:03:28;;;;;;;10.07;4.77;;;9.80;99.90;;;;;;5110562;28;20039;-54
2023/04/19 05:05:57;;;;;;;10.05;4.95;;;9.80;99.90;;;;;;5111453;28;20114;-52
2023/04/19 05:08:25;;;;;;;8.97;5.57;;;9.80;99.90;;;;;;5111144;28;20039;-55
2023/04/19 05:10:52;;;;;;;10.02;5.25;;;9.80;99.90;;;;;;5111037;28;20031;-52
2023/04/19 05:13:20;;;;;;;13.57;5.40;;;9.80;99.90;;;;;;5110734;28;20031;-53
2023/04/19 05:15:48;;;;;;;10.80;5.60;;;9.70;99.90;;;;;;5110707;28;20088;-56
2023/04/19 05:18:14;;;;;;;8.73;5.23;;;9.70;99.90;;;;;;5111563;28;20029;-52
2023/04/19 05:20:41;;;;;;;11.10;5.67;;;9.70;99.90;;;;;;5110510;28;20126;-56
2023/04/19 05:23:15;;;;;;;7.73;5.10;;;9.70;99.90;;;;;;5110836;28;20053;-53
2023/04/19 05:25:42;;;;;;;9.80;5.47;;;9.60;99.90;;;;;;5110543;28;20027;-59
2023/04/19 05:28:08;;;;;;;9.37;5.47;;;9.70;99.90;;;;;;5110470;28;20111;-57
2023/04/19 05:30:43;;;;;;;9.37;5.43;;;9.80;99.90;;;;;;5109899;28;20028;-53
2023/04/19 05:33:09;;;;;;;11.27;5.90;;;9.80;99.90;;;;;;5110240;28;20030;-51
2023/04/19 05:35:35;;;;;;;9.80;5.83;;;10.00;99.90;;;;;;5110302;28;20028;-52
2023/04/19 05:38:01;;;;;;;10.73;6.40;;;10.10;99.90;;;;;;5110458;28;20024;-53
2023/04/19 05:40:28;;;;;;;12.60;6.03;;;10.20;99.90;;;;;;5110610;28;20027;-52
2023/04/19 05:42:54;;;;;;;11.03;6.17;;;10.20;99.90;;;;;;5112130;28;20137;-52
2023/04/19 05:45:21;;;;;;;9.63;5.80;;;10.20;99.90;;;;;;5110091;28;20151;-52
2023/04/19 05:47:46;;;;;;;7.87;5.60;;;10.30;99.90;;;;;;5109696;28;20039;-53
2023/04/19 05:50:31;;;;;;;11.43;6.47;;;10.40;99.90;;;;;;5111510;28;20534;-53
2023/04/19 05:53:25;;;;;;;11.40;6.80;;;10.40;99.90;;;;;;5110149;28;20205;-53
2023/04/19 05:55:51;;;;;;;10.63;6.30;;;10.30;99.90;;;;;;5110252;28;20027;-55
2023/04/19 05:58:18;;;;;;;11.20;6.50;;;10.40;99.90;;;;;;5109853;28;20039;-48
2023/04/19 06:00:44;;;;;;;9.47;6.47;;;10.40;99.90;;;;;;5110984;28;20073;-47
2023/04/19 06:03:12;;;;;;;10.60;6.28;;;10.50;99.90;;;;;;5110378;28;20083;-49
2023/04/19 06:05:39;;;;;;;10.67;6.83;;;10.50;99.90;;;;;;5109329;28;20058;-48
2023/04/19 06:08:06;;;;;;;14.90;6.37;;;10.50;99.90;;;;;;5109296;28;20038;-47
2023/04/19 06:10:31;;;;;;;12.37;6.70;;;10.50;99.90;;;;;;5109368;28;20112;-51
2023/04/19 06:12:57;;;;;;;10.90;6.50;;;10.40;99.90;;;;;;5109495;28;20030;-50
2023/04/19 06:15:24;;;;;;;10.43;6.20;;;10.30;99.90;;;;;;5110413;28;20020;-47
2023/04/19 06:17:51;;;;;;;10.87;6.27;;;10.20;99.90;;;;;;5108330;28;20460;-48
2023/04/19 06:20:16;;;;;;;10.93;6.17;;;9.90;99.90;;;;;;5110728;27;20077;-53
2023/04/19 06:22:44;;;;;;;9.27;5.83;;;9.80;99.90;;;;;;5110432;28;20470;-48
2023/04/19 06:25:10;;;;;;;15.17;6.27;;;9.70;99.90;;;;;;5110568;28;20034;-54
2023/04/19 06:27:36;;;;;;;16.10;6.90;;;9.60;99.90;;;;;;5110521;28;20487;-53
2023/04/19 06:30:02;;;;;;;9.87;6.00;;;9.50;99.90;;;;;;5110339;28;20039;-55
2023/04/19 06:32:28;;;;;;;9.70;5.10;;;9.40;99.90;;;;;;5109818;28;20027;-56
2023/04/19 06:34:53;;;;;;;10.70;5.00;;;9.40;99.90;;;;;;5110805;28;20130;-56
2023/04/19 06:37:19;;;;;;;10.80;5.67;;;9.30;99.90;;;;;;5109159;28;20035;-56
2023/04/19 06:39:45;;;;;;;8.50;5.47;;;9.30;99.90;;;;;;5110997;28;20190;-56
2023/04/19 06:42:11;;;;;;;11.40;5.30;;;9.30;99.90;;;;;;5110003;28;20027;-56
2023/04/19 06:44:37;;;;;;;11.47;5.20;;;9.30;99.90;;;;;;5109374;28;20024;-56
2023/04/19 06:47:02;;;;;;;11.00;5.30;;;9.30;99.90;;;;;;5109457;28;20074;-58
2023/04/19 06:49:28;;;;;;;9.67;5.07;;;9.40;99.90;;;;;;5110618;28;20043;-56
2023/04/19 06:51:54;;;;;;;11.30;5.27;;;9.50;99.90;;;;;;5110043;28;20059;-60
2023/04/19 06:54:20;;;;;;;10.73;5.37;;;9.70;99.90;;;;;;5110784;28;20020;-60
2023/04/19 06:56:47;;;;;;;10.70;5.03;;;9.90;99.90;;;;;;5110229;28;20441;-62
2023/04/19 06:59:15;;;;;;;9.80;4.80;;;10.10;99.90;;;;;;5110701;28;20091;-56
2023/04/19 07:01:41;;;;;;;10.23;4.90;;;10.20;99.90;;;;;;5109319;28;20035;-57
2023/04/19 07:04:07;;;;;;;10.93;5.57;;;10.40;99.90;;;;;;5110372;28;20032;-56
2023/04/19 07:06:34;;;;;;;12.23;4.90;;;10.50;99.90;;;;;;5110231;28;20510;-64
2023/04/19 07:09:02;;;;;;;8.00;4.67;;;10.60;99.90;;;;;;5110577;28;20031;-59
2023/04/19 07:11:28;;;;;;;9.17;4.60;;;10.90;99.40;;;;;;5110335;28;20039;-59
2023/04/19 07:13:54;;;;;;;10.20;4.50;;;11.20;99.20;;;;;;5110258;28;20020;-60
2023/04/19 07:16:20;;;;;;;10.60;4.83;;;11.50;99.70;;;;;;5109691;28;20498;-58
2023/04/19 07:18:45;;;;;;;10.13;4.40;;;11.70;99.30;;;;;;5109675;28;20049;-58
2023/04/19 07:21:11;;;;;;;13.93;4.67;;;11.90;97.80;;;;;;5110062;28;20491;-60
2023/04/19 07:23:37;;;;;;;8.83;4.70;;;12.00;97.60;;;;;;5110045;28;20031;-59
2023/04/19 07:26:03;;;;;;;8.60;4.53;;;12.30;97.20;;;;;;5110242;28;20053;-58
2023/04/19 07:28:29;;;;;;;10.82;4.55;;;12.70;96.50;;;;;;5109673;28;20031;-59
2023/04/19 07:30:54;;;;;;;9.38;4.57;;;13.10;95.10;;;;;;5118926;22;20030;-49
2023/04/19 07:33:21;;;;;;;8.73;4.55;;;13.30;94.30;;;;;;5066456;28;20161;-46
2023/04/19 07:35:47;;;;;;;9.55;4.43;;;13.50;94.10;;;;;;5069179;28;20075;-47
2023/04/19 07:38:12;;;;;;;12.15;4.32;;;13.40;93.70;;;;;;5069110;28;20488;-49
2023/04/19 07:40:38;;;;;;;9.27;4.50;;;13.70;93.90;;;;;;5068837;28;20032;-49
2023/04/19 07:43:04;;;;;;;11.18;4.25;;;14.10;91.70;;;;;;5068461;28;20047;-46
2023/04/19 07:45:30;;;;;;;9.32;4.88;;;14.20;91.80;;;;;;5069230;28;20279;-51
2023/04/19 07:47:56;;;;;;;7.43;4.30;;;14.50;91.40;;;;;;5068032;28;20134;-47
2023/04/19 07:50:23;;;;;;;5.72;3.90;;;14.70;91.30;;;;;;5069125;28;20123;-48
2023/04/19 07:52:49;;;;;;;8.90;4.30;;;14.60;90.10;;;;;;5068904;28;20032;-49
2023/04/19 07:55:15;;;;;;;7.97;4.10;;;14.40;91.00;;;;;;5068724;28;20025;-48
2023/04/19 07:57:44;;;;;;;8.90;4.15;;;14.30;89.10;;;;;;5068621;28;20024;-48
2023/04/19 08:00:11;;;;;;;8.63;3.85;;;14.40;89.70;;;;;;5068528;28;20025;-49
2023/04/19 08:02:44;;;;;;;9.18;4.07;;;14.50;88.40;;;;;;5068126;28;20056;-47
2023/04/19 08:05:12;;;;;;;11.43;4.00;;;14.50;88.00;;;;;;5068870;28;20025;-51
2023/04/19 08:07:38;;;;;;;7.70;3.92;;;14.60;88.00;;;;;;5068633;28;20028;-46
2023/04/19 08:10:08;;;;;;;8.77;3.88;;;14.50;86.10;;;;;;5068925;28;20017;-50
2023/04/19 08:12:34;;;;;;;6.78;3.45;;;14.50;87.20;;;;;;5068733;28;20055;-52
2023/04/19 08:15:01;;;;;;;6.07;3.63;;;14.40;85.70;;;;;;5068342;28;20029;-50
2023/04/19 08:17:26;;;;;;;7.28;3.95;;;14.40;87.00;;;;;;5068037;28;20056;-46
2023/04/19 08:19:52;;;;;;;6.15;3.38;;;14.30;84.70;;;;;;5068825;28;20056;-51
2023/04/19 08:22:19;;;;;;;8.85;3.75;;;14.20;85.60;;;;;;5067485;28;20516;-51
2023/04/19 08:24:44;;;;;;;8.40;3.58;;;14.00;83.40;;;;;;5068754;28;20037;-47
2023/04/19 08:27:11;;;;;;;8.07;3.50;;;14.00;86.90;;;;;;5068327;28;20119;-49
2023/04/19 08:29:39;;;;;;;8.50;3.70;;;14.00;86.60;;;;;;5068527;28;20055;-50
2023/04/19 08:32:06;;;;;;;8.82;3.60;;;14.00;84.50;;;;;;5067436;28;20044;-48
2023/04/19 08:34:35;;;;;;;15.25;3.83;;;13.80;84.80;;;;;;5068796;28;20153;-47
2023/04/19 08:37:02;;;;;;;7.25;3.20;;;13.80;86.20;;;;;;5068611;28;20059;-49
2023/04/19 08:39:28;;;;;;;8.25;3.42;;;13.70;83.70;;;;;;5068848;28;20450;-56
2023/04/19 08:41:56;;;;;;;6.65;3.03;;;13.60;84.40;;;;;;5068383;28;20037;-47
2023/04/19 08:44:23;;;;;;;8.47;3.50;;;13.50;85.40;;;;;;5068425;28;20047;-50
2023/04/19 08:46:49;;;;;;;6.60;3.28;;;13.40;83.90;;;;;;5066917;28;20342;-49
2023/04/19 08:49:19;;;;;;;4.82;2.75;;;13.40;85.60;;;;;;5068924;28;20060;-52
2023/04/19 08:51:47;;;;;;;8.65;2.85;;;13.50;90.00;;;;;;5068434;28;20041;-52
2023/04/19 08:54:14;;;;;;;6.88;3.20;;;13.60;83.80;;;;;;5068684;28;20045;-49
2023/04/19 08:56:40;;;;;;;7.03;3.10;;;13.60;82.70;;;;;;5067946;28;20066;-53
2023/04/19 08:59:06;;;;;;;7.32;3.13;;;13.80;86.70;;;;;;5064227;28;20044;-51
2023/04/19 09:01:32;;;;;;;7.95;3.15;;;14.10;84.70;;;;;;5077390;28;20036;-54
2023/04/19 09:03:58;;;;;;;8.00;2.97;;;14.10;82.70;;;;;;5072838;28;20036;-52
2023/04/19 09:06:23;;;;;;;7.20;3.10;;;14.20;82.80;;;;;;5077771;28;20031;-49
2023/04/19 09:08:56;;;;;;;7.25;3.05;;;13.80;83.60;;;;;;5072583;28;20403;-54
2023/04/19 09:11:39;;;;;;;8.27;3.15;;;13.40;81.60;;;;;;5080326;28;20124;-52
2023/04/19 09:14:13;;;;;;;6.55;3.03;;;13.50;84.80;;;;;;5077531;28;20031;-50
2023/04/19 09:16:38;;;;;;;6.05;3.15;;;13.60;83.30;;;;;;5073599;28;20158;-48
2023/04/19 09:19:05;;;;;;;7.20;3.00;;;13.60;80.00;;;;;;5075218;28;20046;-48
2023/04/19 09:21:33;;;;;;;9.18;3.40;;;13.70;84.10;;;;;;5081365;28;20578;-52
2023/04/19 09:23:59;;;;;;;7.13;3.00;;;13.60;81.00;;;;;;5087923;28;20028;-48
2023/04/19 09:26:28;;;;;;;7.45;3.00;;;13.50;80.10;;;;;;5085949;28;20047;-50
2023/04/19 09:28:54;;;;;;;;;;;13.50;82.90;;;;;;5073183;28;20029;-46
2023/04/19 09:31:20;;;;;;;44.55;3.88;;;13.50;81.50;;;;;;5080905;28;19916;-47
2023/04/19 09:33:46;;;;;;;8.98;2.78;;;13.60;83.40;;;;;;5069277;28;20146;-44
2023/04/19 09:36:27;;;;;;;6.68;2.90;;;13.70;84.20;;;;;;5071314;28;20029;-49
2023/04/19 09:38:53;;;;;;;6.65;2.60;;;13.80;80.70;;;;;;5071610;28;20033;-48
2023/04/19 09:41:19;;;;;;;5.72;2.45;;;13.80;81.20;;;;;;5071444;28;20113;-53
2023/04/19 09:43:45;;;;;;;7.75;2.50;;;13.90;79.10;;;;;;5071251;28;20041;-50
2023/04/19 09:46:33;;;;;;;6.95;2.97;;;14.20;75.60;;;;;;5071027;28;20024;-49
2023/04/19 09:49:28;;;;;;;5.55;2.63;;;14.80;77.80;;;;;;5070686;28;20031;-50
2023/04/19 09:51:55;;;;;;;6.40;3.00;;;15.00;74.10;;;;;;5066176;28;20550;-47
2023/04/19 09:54:24;;;;;;;6.28;1.90;;;15.40;75.00;;;;;;5071299;28;20025;-49
2023/04/19 09:56:51;;;;;;;8.45;1.83;;;15.40;68.90;;;;;;5070661;28;20032;-51
2023/04/19 09:59:17;;;;;;;6.07;1.70;;;15.50;69.20;;;;;;5071168;28;20028;-53
2023/04/19 10:01:45;;;;;;;4.10;1.60;;;15.40;64.80;;;;;;5069890;28;20120;-52
2023/04/19 10:04:13;;;;;;;4.82;2.08;;;15.20;66.20;;;;;;5070893;28;20032;-50
2023/04/19 10:06:40;;;;;;;5.25;1.50;;;15.30;66.10;;;;;;5070597;28;20032;-53
2023/04/19 10:09:07;;;;;;;5.47;2.22;;;15.50;64.80;;;;;;5070825;28;20400;-49
2023/04/19 10:11:39;;;;;;;4.45;2.20;;;15.60;64.00;;;;;;5070448;28;20032;-52
2023/04/19 10:14:09;;;;;;;4.32;2.10;;;15.80;64.80;;;;;;5070733;28;20102;-49
2023/04/19 10:16:37;;;;;;;5.07;2.42;;;16.10;65.80;;;;;;5069335;28;20032;-47
2023/04/19 10:19:09;;;;;;;6.00;2.38;;;15.80;64.10;;;;;;5071517;28;20047;-51
2023/04/19 10:21:35;;;;;;;3.25;1.73;;;15.50;68.00;;;;;;5075460;28;20066;-51
2023/04/19 10:24:01;;;;;;;5.32;2.03;;;15.60;61.80;;;;;;5078303;28;20035;-47
2023/04/19 10:26:27;;;;;;;3.83;1.80;;;15.30;61.30;;;;;;5076842;28;20045;-49
2023/04/19 10:28:55;;;;;;;6.13;2.10;;;15.30;65.30;;;;;;5072903;28;20040;-49
2023/04/19 10:31:22;;;;;;;12.15;3.25;;;15.40;65.50;;;;;;5077888;28;20417;-51
2023/04/19 10:33:50;;;;;;;9.93;2.72;;;15.50;64.40;;;;;;5078397;28;20027;-49
2023/04/19 10:36:16;;;;;;;4.95;2.63;;;15.60;64.60;;;;;;5085641;28;20032;-47
2023/04/19 10:38:51;;;;;;;5.43;2.42;;;15.90;65.40;;;;;;5089547;28;20039;-48
2023/04/19 10:41:20;;;;;;;8.50;3.00;;;16.30;65.00;;;;;;5088810;28;20028;-48
2023/04/19 10:44:07;;;;;;;6.25;2.88;;;16.10;63.10;;;;;;5090186;28;20061;-51
2023/04/19 10:46:34;;;;;;;5.90;2.70;;;16.30;62.40;;;;;;5089566;28;20032;-45
2023/04/19 10:49:02;;;;;;;5.60;2.75;;;16.10;63.40;;;;;;5089174;28;20534;-48
2023/04/19 10:51:32;;;;;;;5.53;2.50;;;16.70;62.90;;;;;;5090015;28;20538;-48
2023/04/19 10:54:02;;;;;;;5.45;3.00;;;16.70;61.70;;;;;;5089983;28;20053;-49
2023/04/19 10:56:34;;;;;;;7.97;3.05;;;17.20;61.40;;;;;;5089579;28;20031;-49
2023/04/19 10:59:06;;;;;;;8.43;2.97;;;17.60;60.50;;;;;;5089864;28;20031;-52
2023/04/19 11:01:39;;;;;;;6.47;2.80;;;17.90;60.00;;;;;;5089341;28;20042;-51
2023/04/19 11:04:08;;;;;;;4.78;2.80;;;17.80;58.50;;;;;;5089540;28;20028;-48
2023/04/19 11:06:35;;;;;;;6.20;2.88;;;17.60;59.90;;;;;;5089096;28;20477;-48
2023/04/19 11:09:03;;;;;;;5.65;2.75;;;17.40;59.90;;;;;;5089596;28;20042;-48
2023/04/19 11:11:32;;;;;;;8.52;2.90;;;17.50;61.20;;;;;;5089314;28;20024;-48
2023/04/19 11:14:01;;;;;;;5.63;2.92;;;17.80;60.60;;;;;;5089231;28;20034;-48
2023/04/19 11:16:27;;;;;;;6.40;2.85;;;17.20;59.40;;;;;;5088630;28;20105;-49
2023/04/19 11:18:54;;;;;;;5.20;2.67;;;17.10;63.10;;;;;;5068697;28;20050;-49
2023/04/19 11:21:20;;;;;;;6.65;2.60;;;16.70;59.10;;;;;;5069157;28;20538;-47
2023/04/19 11:23:48;;;;;;;4.40;2.60;;;16.30;62.20;;;;;;5069282;28;20032;-48
2023/04/19 11:26:13;;;;;;;5.93;3.00;;;16.30;61.90;;;;;;5069279;28;20457;-48
2023/04/19 11:28:39;;;;;;;6.45;2.72;;;15.90;60.20;;;;;;5068171;28;20029;-48
2023/04/19 11:31:05;;;;;;;4.70;2.40;;;15.90;61.50;;;;;;5068618;28;20040;-47
2023/04/19 11:33:35;;;;;;;5.32;2.60;;;16.20;64.90;;;;;;5067008;28;20086;-51
2023/04/19 11:36:02;;;;;;;6.05;2.88;;;16.00;61.50;;;;;;5069442;28;20051;-48
2023/04/19 11:38:29;;;;;;;5.50;2.65;;;15.70;64.90;;;;;;5068443;28;20077;-50
2023/04/19 11:41:02;;;;;;;5.43;2.72;;;15.60;64.30;;;;;;5069209;28;20170;-48
2023/04/19 11:43:32;;;;;;;7.10;2.85;;;15.90;63.00;;;;;;5068566;28;20024;-51
2023/04/19 11:46:05;;;;;;;4.35;2.42;;;16.10;64.00;;;;;;5068767;28;20378;-51
2023/04/19 11:48:31;;;;;;;4.35;2.45;;;16.30;61.00;;;;;;5067793;28;20028;-49
2023/04/19 11:50:58;;;;;;;5.78;2.42;;;16.00;63.30;;;;;;5067702;28;20548;-45
2023/04/19 11:53:28;;;;;;;6.18;2.60;;;15.80;59.40;;;;;;5068405;28;20028;-44
2023/04/19 11:56:02;;;;;;;9.13;2.88;;;15.80;58.50;;;;;;5068859;28;20054;-49
2023/04/19 11:58:42;;;;;;;3.50;2.42;;;15.70;57.40;;;;;;5068358;28;20031;-48
2023/04/19 12:01:13;;;;;;;7.53;2.83;;;15.60;59.20;;;;;;5068560;28;20047;-49
2023/04/19 12:03:55;;;;;;;9.30;3.30;;;15.40;59.20;;;;;;5067679;28;20036;-47
2023/04/19 12:06:30;;;;;;;7.45;2.83;;;15.30;60.20;;;;;;5068137;28;20053;-45
2023/04/19 12:08:57;;;;;;;8.02;2.85;;;15.50;61.50;;;;;;5068440;28;20040;-50
2023/04/19 12:11:25;;;;;;;6.03;2.72;;;15.60;59.70;;;;;;5068368;28;20083;-49
2023/04/19 12:14:10;;;;;;;5.25;2.42;;;15.60;59.60;;;;;;5068332;28;20029;-51
2023/04/19 12:16:37;;;;;;;7.40;3.20;;;15.80;61.90;;;;;;5067641;28;20103;-48
2023/04/19 12:19:12;;;;;;;6.72;3.30;;;15.80;58.70;;;;;;5068128;28;20044;-48
2023/04/19 12:21:39;;;;;;;6.28;2.85;;;15.70;59.10;;;;;;5068604;28;20060;-48
2023/04/19 12:24:05;;;;;;;6.50;2.80;;;15.70;59.80;;;;;;5068614;28;20089;-47
2023/04/19 12:26:31;;;;;;;7.25;3.13;;;15.50;60.30;;;;;;5068248;28;20024;-47
2023/04/19 12:28:58;;;;;;;7.47;3.00;;;15.60;60.30;;;;;;5068897;28;20206;-49
2023/04/19 12:31:24;;;;;;;10.73;3.28;;;15.60;58.60;;;;;;5067805;28;20045;-50
2023/04/19 12:33:50;;;;;;;7.15;2.90;;;15.50;57.70;;;;;;5067913;28;20181;-51
2023/04/19 12:36:16;;;;;;;8.15;2.95;;;15.40;59.50;;;;;;5068514;28;20157;-55
2023/04/19 12:38:42;;;;;;;6.75;3.53;;;15.40;58.90;;;;;;5068295;28;20033;-53
2023/04/19 12:41:07;;;;;;;6.28;3.20;;;15.50;60.30;;;;;;5071716;28;20108;-53
2023/04/19 12:43:33;;;;;;;4.32;2.80;;;15.40;59.50;;;;;;5070546;28;20032;-50